sensor_id;sensor_type;location;lat;lon;timestamp;P1;durP1;ratioP1;P2;durP2;ratioP2
45392;SDS011;31129;44.810;10.334;2023-02-28T00:00:15;17.92;;;7.55;;
45392;SDS011;31129;44.810;10.334;2023-02-28T00:02:42;15.73;;;8.18;;
45392;SDS011;31129;44.810;10.334;2023-02-28T00:05:08;18.05;;;7.93;;
45392;SDS011;31129;44.810;10.334;2023-02-28T00:07:35;14.57;;;8.02;;
45392;SDS011;31129;44.810;10.334;2023-02-28T00:10:01;33.60;;;10.43;;
45392;SDS011;31129;44.810;10.334;2023-02-28T00:12:27;15.45;;;7.65;;
45392;SDS011;31129;44.810;10.334;2023-02-28T00:14:52;20.25;;;7.75;;
45392;SDS011;31129;44.810;10.334;2023-02-28T00:17:18;17.90;;;7.78;;
45392;SDS011;31129;44.810;10.334;2023-02-28T00:19:49;19.55;;;7.80;;
45392;SDS011;31129;44.810;10.334;2023-02-28T00:22:16;16.10;;;8.88;;
45392;SDS011;31129;44.810;10.334;2023-02-28T00:24:42;15.75;;;8.18;;
45392;SDS011;31129;44.810;10.334;2023-02-28T00:27:08;20.92;;;8.30;;
45392;SDS011;31129;44.810;10.334;2023-02-28T00:29:34;17.40;;;8.23;;
45392;SDS011;31129;44.810;10.334;2023-02-28T00:32:00;18.17;;;8.75;;
45392;SDS011;31129;44.810;10.334;2023-02-28T00:34:26;20.05;;;8.18;;
45392;SDS011;31129;44.810;10.334;2023-02-28T00:36:51;16.73;;;8.73;;
45392;SDS011;31129;44.810;10.334;2023-02-28T00:39:17;20.63;;;8.95;;
45392;SDS011;31129;44.810;10.334;2023-02-28T00:41:42;13.57;;;8.30;;
45392;SDS011;31129;44.810;10.334;2023-02-28T00:44:08;15.38;;;8.18;;
45392;SDS011;31129;44.810;10.334;2023-02-28T00:46:34;17.73;;;7.82;;
45392;SDS011;31129;44.810;10.334;2023-02-28T00:49:02;15.98;;;7.40;;
45392;SDS011;31129;44.810;10.334;2023-02-28T00:51:27;17.50;;;8.55;;
45392;SDS011;31129;44.810;10.334;2023-02-28T00:56:22;17.55;;;8.10;;
45392;SDS011;31129;44.810;10.334;2023-02-28T00:58:48;16.52;;;8.32;;
45392;SDS011;31129;44.810;10.334;2023-02-28T01:01:13;20.23;;;8.38;;
45392;SDS011;31129;44.810;10.334;2023-02-28T01:03:38;17.45;;;8.00;;
45392;SDS011;31129;44.810;10.334;2023-02-28T01:06:04;17.20;;;8.90;;
45392;SDS011;31129;44.810;10.334;2023-02-28T01:08:30;14.63;;;8.23;;
45392;SDS011;31129;44.810;10.334;2023-02-28T01:10:56;15.85;;;7.82;;
45392;SDS011;31129;44.810;10.334;2023-02-28T01:13:22;16.83;;;8.48;;
45392;SDS011;31129;44.810;10.334;2023-02-28T01:15:52;22.13;;;8.35;;
45392;SDS011;31129;44.810;10.334;2023-02-28T01:18:20;14.35;;;8.23;;
45392;SDS011;31129;44.810;10.334;2023-02-28T01:20:46;18.80;;;7.97;;
45392;SDS011;31129;44.810;10.334;2023-02-28T01:23:12;18.48;;;8.80;;
45392;SDS011;31129;44.810;10.334;2023-02-28T01:25:38;13.65;;;7.50;;
45392;SDS011;31129;44.810;10.334;2023-02-28T01:28:03;17.02;;;8.70;;
45392;SDS011;31129;44.810;10.334;2023-02-28T01:30:30;17.42;;;8.52;;
45392;SDS011;31129;44.810;10.334;2023-02-28T01:32:55;18.00;;;8.75;;
45392;SDS011;31129;44.810;10.334;2023-02-28T01:35:20;19.98;;;8.15;;
45392;SDS011;31129;44.810;10.334;2023-02-28T01:37:46;26.33;;;9.65;;
45392;SDS011;31129;44.810;10.334;2023-02-28T01:40:11;16.42;;;8.50;;
45392;SDS011;31129;44.810;10.334;2023-02-28T01:42:37;20.92;;;8.85;;
45392;SDS011;31129;44.810;10.334;2023-02-28T01:45:14;21.35;;;8.93;;
45392;SDS011;31129;44.810;10.334;2023-02-28T01:47:45;19.05;;;8.52;;
45392;SDS011;31129;44.810;10.334;2023-02-28T01:50:21;24.23;;;8.45;;
45392;SDS011;31129;44.810;10.334;2023-02-28T01:52:50;17.65;;;7.55;;
45392;SDS011;31129;44.810;10.334;2023-02-28T01:55:19;15.18;;;7.60;;
45392;SDS011;31129;44.810;10.334;2023-02-28T01:57:51;18.83;;;8.57;;
45392;SDS011;31129;44.810;10.334;2023-02-28T02:00:20;16.80;;;7.40;;
45392;SDS011;31129;44.810;10.334;2023-02-28T02:02:49;15.52;;;7.40;;
45392;SDS011;31129;44.810;10.334;2023-02-28T02:05:21;17.10;;;7.85;;
45392;SDS011;31129;44.810;10.334;2023-02-28T02:07:50;14.52;;;7.97;;
45392;SDS011;31129;44.810;10.334;2023-02-28T02:13:13;13.38;;;8.15;;
45392;SDS011;31129;44.810;10.334;2023-02-28T02:21:18;12.98;;;7.80;;
45392;SDS011;31129;44.810;10.334;2023-02-28T02:23:53;17.80;;;7.20;;
45392;SDS011;31129;44.810;10.334;2023-02-28T02:38:31;15.95;;;8.20;;
45392;SDS011;31129;44.810;10.334;2023-02-28T02:46:26;16.52;;;7.78;;
45392;SDS011;31129;44.810;10.334;2023-02-28T02:48:57;12.07;;;6.93;;
45392;SDS011;31129;44.810;10.334;2023-02-28T02:51:27;13.10;;;7.07;;
45392;SDS011;31129;44.810;10.334;2023-02-28T02:54:07;13.60;;;7.10;;
45392;SDS011;31129;44.810;10.334;2023-02-28T02:56:39;13.82;;;7.15;;
45392;SDS011;31129;44.810;10.334;2023-02-28T02:59:09;13.80;;;7.03;;
45392;SDS011;31129;44.810;10.334;2023-02-28T03:01:42;15.52;;;7.82;;
45392;SDS011;31129;44.810;10.334;2023-02-28T03:04:09;11.70;;;7.00;;
45392;SDS011;31129;44.810;10.334;2023-02-28T03:06:37;14.07;;;7.50;;
45392;SDS011;31129;44.810;10.334;2023-02-28T03:09:03;15.43;;;8.38;;
45392;SDS011;31129;44.810;10.334;2023-02-28T03:11:30;14.10;;;7.85;;
45392;SDS011;31129;44.810;10.334;2023-02-28T03:16:36;13.70;;;8.13;;
45392;SDS011;31129;44.810;10.334;2023-02-28T03:24:43;14.13;;;7.75;;
45392;SDS011;31129;44.810;10.334;2023-02-28T03:32:56;11.27;;;6.80;;
45392;SDS011;31129;44.810;10.334;2023-02-28T03:35:30;13.05;;;7.53;;
45392;SDS011;31129;44.810;10.334;2023-02-28T03:38:07;14.65;;;7.75;;
45392;SDS011;31129;44.810;10.334;2023-02-28T03:40:39;12.10;;;7.13;;
45392;SDS011;31129;44.810;10.334;2023-02-28T03:43:12;12.32;;;8.13;;
45392;SDS011;31129;44.810;10.334;2023-02-28T03:45:40;12.95;;;7.50;;
45392;SDS011;31129;44.810;10.334;2023-02-28T03:48:16;13.88;;;7.68;;
45392;SDS011;31129;44.810;10.334;2023-02-28T03:50:47;10.68;;;7.50;;
45392;SDS011;31129;44.810;10.334;2023-02-28T03:53:29;16.63;;;7.85;;
45392;SDS011;31129;44.810;10.334;2023-02-28T03:56:42;14.18;;;7.85;;
45392;SDS011;31129;44.810;10.334;2023-02-28T04:01:47;11.10;;;7.00;;
45392;SDS011;31129;44.810;10.334;2023-02-28T04:04:14;14.73;;;6.88;;
45392;SDS011;31129;44.810;10.334;2023-02-28T04:06:40;12.52;;;7.25;;
45392;SDS011;31129;44.810;10.334;2023-02-28T04:09:07;9.93;;;6.60;;
45392;SDS011;31129;44.810;10.334;2023-02-28T04:11:44;13.10;;;7.68;;
45392;SDS011;31129;44.810;10.334;2023-02-28T04:14:13;12.82;;;8.00;;
45392;SDS011;31129;44.810;10.334;2023-02-28T04:16:39;16.15;;;7.95;;
45392;SDS011;31129;44.810;10.334;2023-02-28T04:19:06;11.77;;;7.72;;
45392;SDS011;31129;44.810;10.334;2023-02-28T04:21:34;11.77;;;7.40;;
45392;SDS011;31129;44.810;10.334;2023-02-28T04:24:02;10.25;;;6.65;;
45392;SDS011;31129;44.810;10.334;2023-02-28T04:26:32;10.98;;;7.55;;
45392;SDS011;31129;44.810;10.334;2023-02-28T04:29:02;14.73;;;8.40;;
45392;SDS011;31129;44.810;10.334;2023-02-28T04:31:29;10.82;;;7.32;;
45392;SDS011;31129;44.810;10.334;2023-02-28T04:33:54;12.85;;;7.35;;
45392;SDS011;31129;44.810;10.334;2023-02-28T04:36:20;14.55;;;7.82;;
45392;SDS011;31129;44.810;10.334;2023-02-28T04:38:45;12.27;;;8.00;;
45392;SDS011;31129;44.810;10.334;2023-02-28T04:41:12;11.57;;;7.70;;
45392;SDS011;31129;44.810;10.334;2023-02-28T04:43:38;14.73;;;8.05;;
45392;SDS011;31129;44.810;10.334;2023-02-28T04:46:04;11.70;;;6.97;;
45392;SDS011;31129;44.810;10.334;2023-02-28T04:48:32;12.23;;;7.63;;
45392;SDS011;31129;44.810;10.334;2023-02-28T04:51:00;13.10;;;7.60;;
45392;SDS011;31129;44.810;10.334;2023-02-28T04:53:28;13.80;;;7.32;;
45392;SDS011;31129;44.810;10.334;2023-02-28T04:55:54;13.43;;;7.75;;
45392;SDS011;31129;44.810;10.334;2023-02-28T04:58:20;12.40;;;7.40;;
45392;SDS011;31129;44.810;10.334;2023-02-28T05:00:48;13.30;;;8.27;;
45392;SDS011;31129;44.810;10.334;2023-02-28T05:03:13;12.07;;;7.82;;
45392;SDS011;31129;44.810;10.334;2023-02-28T05:05:39;14.20;;;8.38;;
45392;SDS011;31129;44.810;10.334;2023-02-28T05:08:04;12.75;;;8.02;;
45392;SDS011;31129;44.810;10.334;2023-02-28T05:10:30;16.20;;;9.25;;
45392;SDS011;31129;44.810;10.334;2023-02-28T05:12:56;13.38;;;8.48;;
45392;SDS011;31129;44.810;10.334;2023-02-28T05:15:22;10.73;;;7.82;;
45392;SDS011;31129;44.810;10.334;2023-02-28T05:17:47;14.77;;;8.18;;
45392;SDS011;31129;44.810;10.334;2023-02-28T05:20:13;10.25;;;7.70;;
45392;SDS011;31129;44.810;10.334;2023-02-28T05:22:42;15.43;;;8.13;;
45392;SDS011;31129;44.810;10.334;2023-02-28T05:25:10;12.63;;;8.40;;
45392;SDS011;31129;44.810;10.334;2023-02-28T05:27:43;14.65;;;8.60;;
45392;SDS011;31129;44.810;10.334;2023-02-28T05:30:09;13.30;;;8.70;;
45392;SDS011;31129;44.810;10.334;2023-02-28T05:32:39;13.20;;;8.43;;
45392;SDS011;31129;44.810;10.334;2023-02-28T05:35:08;12.73;;;8.35;;
45392;SDS011;31129;44.810;10.334;2023-02-28T05:37:35;15.05;;;8.32;;
45392;SDS011;31129;44.810;10.334;2023-02-28T05:40:01;16.90;;;7.57;;
45392;SDS011;31129;44.810;10.334;2023-02-28T05:42:31;14.00;;;8.55;;
45392;SDS011;31129;44.810;10.334;2023-02-28T05:44:57;13.32;;;7.93;;
45392;SDS011;31129;44.810;10.334;2023-02-28T05:47:22;10.98;;;7.25;;
45392;SDS011;31129;44.810;10.334;2023-02-28T05:49:48;13.57;;;8.20;;
45392;SDS011;31129;44.810;10.334;2023-02-28T05:52:13;12.52;;;8.25;;
45392;SDS011;31129;44.810;10.334;2023-02-28T05:54:39;13.55;;;8.13;;
45392;SDS011;31129;44.810;10.334;2023-02-28T05:57:04;15.73;;;8.70;;
45392;SDS011;31129;44.810;10.334;2023-02-28T05:59:30;12.30;;;7.80;;
45392;SDS011;31129;44.810;10.334;2023-02-28T06:01:55;11.70;;;7.90;;
45392;SDS011;31129;44.810;10.334;2023-02-28T06:04:21;11.95;;;7.75;;
45392;SDS011;31129;44.810;10.334;2023-02-28T06:06:47;11.57;;;8.20;;
45392;SDS011;31129;44.810;10.334;2023-02-28T06:09:13;16.65;;;8.13;;
45392;SDS011;31129;44.810;10.334;2023-02-28T06:11:42;14.35;;;7.75;;
45392;SDS011;31129;44.810;10.334;2023-02-28T06:14:07;14.35;;;8.23;;
45392;SDS011;31129;44.810;10.334;2023-02-28T06:16:39;14.23;;;7.90;;
45392;SDS011;31129;44.810;10.334;2023-02-28T06:19:05;13.43;;;8.40;;
45392;SDS011;31129;44.810;10.334;2023-02-28T06:21:31;15.90;;;8.93;;
45392;SDS011;31129;44.810;10.334;2023-02-28T06:23:57;15.85;;;8.50;;
45392;SDS011;31129;44.810;10.334;2023-02-28T06:26:23;16.88;;;8.57;;
45392;SDS011;31129;44.810;10.334;2023-02-28T06:28:49;15.73;;;9.07;;
45392;SDS011;31129;44.810;10.334;2023-02-28T06:31:16;17.02;;;8.60;;
45392;SDS011;31129;44.810;10.334;2023-02-28T06:33:42;12.57;;;8.02;;
45392;SDS011;31129;44.810;10.334;2023-02-28T06:36:10;16.52;;;8.98;;
45392;SDS011;31129;44.810;10.334;2023-02-28T06:38:36;14.50;;;8.63;;
45392;SDS011;31129;44.810;10.334;2023-02-28T06:41:03;16.40;;;9.88;;
45392;SDS011;31129;44.810;10.334;2023-02-28T06:43:30;15.07;;;9.23;;
45392;SDS011;31129;44.810;10.334;2023-02-28T06:45:58;13.73;;;9.32;;
45392;SDS011;31129;44.810;10.334;2023-02-28T06:48:25;15.80;;;9.03;;
45392;SDS011;31129;44.810;10.334;2023-02-28T06:50:51;20.02;;;9.15;;
45392;SDS011;31129;44.810;10.334;2023-02-28T06:53:17;19.08;;;9.48;;
45392;SDS011;31129;44.810;10.334;2023-02-28T06:55:43;14.75;;;9.02;;
45392;SDS011;31129;44.810;10.334;2023-02-28T06:58:08;14.65;;;9.68;;
45392;SDS011;31129;44.810;10.334;2023-02-28T07:00:40;14.15;;;8.93;;
45392;SDS011;31129;44.810;10.334;2023-02-28T07:03:10;17.33;;;10.15;;
45392;SDS011;31129;44.810;10.334;2023-02-28T07:05:37;20.98;;;9.07;;
45392;SDS011;31129;44.810;10.334;2023-02-28T07:08:03;15.05;;;9.50;;
45392;SDS011;31129;44.810;10.334;2023-02-28T07:10:31;16.90;;;9.75;;
45392;SDS011;31129;44.810;10.334;2023-02-28T07:13:02;17.58;;;9.35;;
45392;SDS011;31129;44.810;10.334;2023-02-28T07:15:28;16.90;;;9.20;;
45392;SDS011;31129;44.810;10.334;2023-02-28T07:17:54;20.48;;;10.10;;
45392;SDS011;31129;44.810;10.334;2023-02-28T07:20:21;15.68;;;9.43;;
45392;SDS011;31129;44.810;10.334;2023-02-28T07:22:48;15.98;;;9.32;;
45392;SDS011;31129;44.810;10.334;2023-02-28T07:25:23;20.05;;;9.85;;
45392;SDS011;31129;44.810;10.334;2023-02-28T07:27:49;18.13;;;10.07;;
45392;SDS011;31129;44.810;10.334;2023-02-28T07:30:15;17.10;;;9.73;;
45392;SDS011;31129;44.810;10.334;2023-02-28T07:32:41;15.57;;;8.45;;
45392;SDS011;31129;44.810;10.334;2023-02-28T07:35:07;13.38;;;9.25;;
45392;SDS011;31129;44.810;10.334;2023-02-28T07:37:33;15.05;;;10.35;;
45392;SDS011;31129;44.810;10.334;2023-02-28T07:40:05;18.67;;;9.60;;
45392;SDS011;31129;44.810;10.334;2023-02-28T07:42:39;17.38;;;9.90;;
45392;SDS011;31129;44.810;10.334;2023-02-28T07:45:05;17.40;;;8.85;;
45392;SDS011;31129;44.810;10.334;2023-02-28T07:47:33;15.77;;;9.60;;
45392;SDS011;31129;44.810;10.334;2023-02-28T07:49:59;14.93;;;9.27;;
45392;SDS011;31129;44.810;10.334;2023-02-28T07:52:24;15.27;;;9.52;;
45392;SDS011;31129;44.810;10.334;2023-02-28T07:54:50;19.90;;;9.90;;
45392;SDS011;31129;44.810;10.334;2023-02-28T07:57:16;18.83;;;9.98;;
45392;SDS011;31129;44.810;10.334;2023-02-28T07:59:42;15.23;;;9.55;;
45392;SDS011;31129;44.810;10.334;2023-02-28T08:02:12;15.88;;;9.32;;
45392;SDS011;31129;44.810;10.334;2023-02-28T08:04:39;17.92;;;9.25;;
45392;SDS011;31129;44.810;10.334;2023-02-28T08:07:04;16.70;;;10.07;;
45392;SDS011;31129;44.810;10.334;2023-02-28T08:09:30;15.25;;;9.00;;
45392;SDS011;31129;44.810;10.334;2023-02-28T08:11:55;19.98;;;9.10;;
45392;SDS011;31129;44.810;10.334;2023-02-28T08:14:21;18.55;;;8.93;;
45392;SDS011;31129;44.810;10.334;2023-02-28T08:16:46;13.38;;;8.38;;
45392;SDS011;31129;44.810;10.334;2023-02-28T08:19:12;15.10;;;9.13;;
45392;SDS011;31129;44.810;10.334;2023-02-28T08:21:37;23.45;;;9.25;;
45392;SDS011;31129;44.810;10.334;2023-02-28T08:24:02;14.80;;;8.65;;
45392;SDS011;31129;44.810;10.334;2023-02-28T08:26:31;13.77;;;8.50;;
45392;SDS011;31129;44.810;10.334;2023-02-28T08:28:57;14.02;;;8.82;;
45392;SDS011;31129;44.810;10.334;2023-02-28T08:31:23;11.65;;;7.95;;
45392;SDS011;31129;44.810;10.334;2023-02-28T08:33:48;12.55;;;8.05;;
45392;SDS011;31129;44.810;10.334;2023-02-28T08:36:16;13.77;;;8.40;;
45392;SDS011;31129;44.810;10.334;2023-02-28T08:38:41;19.10;;;8.57;;
45392;SDS011;31129;44.810;10.334;2023-02-28T08:41:08;12.07;;;8.40;;
45392;SDS011;31129;44.810;10.334;2023-02-28T08:43:35;12.20;;;8.55;;
45392;SDS011;31129;44.810;10.334;2023-02-28T08:46:01;22.20;;;9.48;;
45392;SDS011;31129;44.810;10.334;2023-02-28T08:48:29;21.88;;;10.15;;
45392;SDS011;31129;44.810;10.334;2023-02-28T08:50:59;12.45;;;8.95;;
45392;SDS011;31129;44.810;10.334;2023-02-28T08:53:32;11.68;;;7.80;;
45392;SDS011;31129;44.810;10.334;2023-02-28T08:58:24;14.07;;;8.18;;
45392;SDS011;31129;44.810;10.334;2023-02-28T09:00:50;14.32;;;9.07;;
45392;SDS011;31129;44.810;10.334;2023-02-28T09:03:15;13.52;;;8.27;;
45392;SDS011;31129;44.810;10.334;2023-02-28T09:05:51;11.55;;;7.88;;
45392;SDS011;31129;44.810;10.334;2023-02-28T09:08:24;13.10;;;8.75;;
45392;SDS011;31129;44.810;10.334;2023-02-28T09:10:51;18.58;;;9.38;;
45392;SDS011;31129;44.810;10.334;2023-02-28T09:13:17;17.05;;;8.90;;
45392;SDS011;31129;44.810;10.334;2023-02-28T09:15:43;18.83;;;9.60;;
45392;SDS011;31129;44.810;10.334;2023-02-28T09:18:09;14.25;;;8.63;;
45392;SDS011;31129;44.810;10.334;2023-02-28T09:20:37;16.83;;;9.30;;
45392;SDS011;31129;44.810;10.334;2023-02-28T09:23:03;14.55;;;8.93;;
45392;SDS011;31129;44.810;10.334;2023-02-28T09:25:29;16.25;;;9.05;;
45392;SDS011;31129;44.810;10.334;2023-02-28T09:27:54;14.23;;;8.90;;
45392;SDS011;31129;44.810;10.334;2023-02-28T09:30:20;28.45;;;10.02;;
45392;SDS011;31129;44.810;10.334;2023-02-28T09:32:45;12.98;;;8.75;;
45392;SDS011;31129;44.810;10.334;2023-02-28T09:35:17;16.30;;;8.85;;
45392;SDS011;31129;44.810;10.334;2023-02-28T09:37:44;16.15;;;8.98;;
45392;SDS011;31129;44.810;10.334;2023-02-28T09:40:10;12.27;;;9.27;;
45392;SDS011;31129;44.810;10.334;2023-02-28T09:42:37;27.92;;;9.38;;
45392;SDS011;31129;44.810;10.334;2023-02-28T09:45:05;15.80;;;9.95;;
45392;SDS011;31129;44.810;10.334;2023-02-28T09:47:41;15.30;;;9.70;;
45392;SDS011;31129;44.810;10.334;2023-02-28T09:50:17;16.58;;;10.15;;
45392;SDS011;31129;44.810;10.334;2023-02-28T09:52:51;13.00;;;9.00;;
45392;SDS011;31129;44.810;10.334;2023-02-28T09:55:22;14.55;;;9.25;;
45392;SDS011;31129;44.810;10.334;2023-02-28T09:57:56;18.30;;;10.73;;
45392;SDS011;31129;44.810;10.334;2023-02-28T10:00:28;14.63;;;9.93;;
45392;SDS011;31129;44.810;10.334;2023-02-28T10:05:52;15.20;;;10.02;;
45392;SDS011;31129;44.810;10.334;2023-02-28T10:08:26;15.05;;;9.95;;
45392;SDS011;31129;44.810;10.334;2023-02-28T10:10:57;12.85;;;8.75;;
45392;SDS011;31129;44.810;10.334;2023-02-28T10:13:36;15.55;;;8.88;;
45392;SDS011;31129;44.810;10.334;2023-02-28T10:16:24;13.57;;;8.77;;
45392;SDS011;31129;44.810;10.334;2023-02-28T10:22:09;15.80;;;10.20;;
45392;SDS011;31129;44.810;10.334;2023-02-28T10:24:39;12.52;;;9.27;;
45392;SDS011;31129;44.810;10.334;2023-02-28T10:27:20;16.80;;;10.07;;
45392;SDS011;31129;44.810;10.334;2023-02-28T10:29:54;18.15;;;9.88;;
45392;SDS011;31129;44.810;10.334;2023-02-28T10:32:25;12.57;;;9.02;;
45392;SDS011;31129;44.810;10.334;2023-02-28T10:37:33;22.60;;;9.63;;
45392;SDS011;31129;44.810;10.334;2023-02-28T10:40:04;15.45;;;10.00;;
45392;SDS011;31129;44.810;10.334;2023-02-28T10:42:31;16.02;;;9.35;;
45392;SDS011;31129;44.810;10.334;2023-02-28T10:45:16;19.90;;;10.07;;
45392;SDS011;31129;44.810;10.334;2023-02-28T10:58:23;16.90;;;9.48;;
45392;SDS011;31129;44.810;10.334;2023-02-28T11:00:49;13.00;;;9.90;;
45392;SDS011;31129;44.810;10.334;2023-02-28T11:03:23;13.90;;;9.20;;
45392;SDS011;31129;44.810;10.334;2023-02-28T11:05:53;14.17;;;9.67;;
45392;SDS011;31129;44.810;10.334;2023-02-28T11:08:19;14.85;;;9.88;;
45392;SDS011;31129;44.810;10.334;2023-02-28T11:10:54;14.00;;;9.57;;
45392;SDS011;31129;44.810;10.334;2023-02-28T11:13:25;13.32;;;9.25;;
45392;SDS011;31129;44.810;10.334;2023-02-28T11:15:54;16.08;;;9.57;;
45392;SDS011;31129;44.810;10.334;2023-02-28T11:21:05;20.10;;;10.70;;
45392;SDS011;31129;44.810;10.334;2023-02-28T11:23:32;17.08;;;10.02;;
45392;SDS011;31129;44.810;10.334;2023-02-28T11:26:02;19.23;;;9.45;;
45392;SDS011;31129;44.810;10.334;2023-02-28T11:38:55;23.92;;;11.15;;
45392;SDS011;31129;44.810;10.334;2023-02-28T11:47:10;15.50;;;10.50;;
45392;SDS011;31129;44.810;10.334;2023-02-28T11:49:51;15.65;;;10.50;;
45392;SDS011;31129;44.810;10.334;2023-02-28T11:52:29;18.60;;;10.18;;
45392;SDS011;31129;44.810;10.334;2023-02-28T12:03:33;16.30;;;10.50;;
45392;SDS011;31129;44.810;10.334;2023-02-28T12:09:09;17.70;;;9.93;;
45392;SDS011;31129;44.810;10.334;2023-02-28T12:18:12;15.40;;;10.07;;
45392;SDS011;31129;44.810;10.334;2023-02-28T12:23:17;16.13;;;10.48;;
45392;SDS011;31129;44.810;10.334;2023-02-28T12:28:18;14.18;;;9.88;;
45392;SDS011;31129;44.810;10.334;2023-02-28T12:33:49;16.00;;;10.85;;
45392;SDS011;31129;44.810;10.334;2023-02-28T12:36:18;18.88;;;10.90;;
45392;SDS011;31129;44.810;10.334;2023-02-28T12:38:57;15.55;;;10.05;;
45392;SDS011;31129;44.810;10.334;2023-02-28T12:41:33;15.68;;;11.13;;
45392;SDS011;31129;44.810;10.334;2023-02-28T12:44:06;19.52;;;11.80;;
45392;SDS011;31129;44.810;10.334;2023-02-28T12:46:37;20.02;;;11.40;;
45392;SDS011;31129;44.810;10.334;2023-02-28T12:49:49;15.38;;;10.98;;
45392;SDS011;31129;44.810;10.334;2023-02-28T12:52:02;15.32;;;10.85;;
45392;SDS011;31129;44.810;10.334;2023-02-28T12:57:25;20.13;;;11.70;;
45392;SDS011;31129;44.810;10.334;2023-02-28T13:00:01;18.52;;;11.15;;
45392;SDS011;31129;44.810;10.334;2023-02-28T13:05:10;14.75;;;10.75;;
45392;SDS011;31129;44.810;10.334;2023-02-28T13:07:46;17.85;;;10.45;;
45392;SDS011;31129;44.810;10.334;2023-02-28T13:10:22;17.08;;;10.48;;
45392;SDS011;31129;44.810;10.334;2023-02-28T13:12:48;17.70;;;11.38;;
45392;SDS011;31129;44.810;10.334;2023-02-28T13:15:25;15.85;;;10.20;;
45392;SDS011;31129;44.810;10.334;2023-02-28T13:17:55;15.27;;;9.93;;
45392;SDS011;31129;44.810;10.334;2023-02-28T13:20:26;14.45;;;10.75;;
45392;SDS011;31129;44.810;10.334;2023-02-28T13:26:08;16.92;;;11.05;;
45392;SDS011;31129;44.810;10.334;2023-02-28T13:31:20;16.75;;;11.73;;
45392;SDS011;31129;44.810;10.334;2023-02-28T13:36:38;18.25;;;11.65;;
45392;SDS011;31129;44.810;10.334;2023-02-28T13:39:44;16.60;;;11.27;;
45392;SDS011;31129;44.810;10.334;2023-02-28T13:47:27;17.65;;;10.95;;
45392;SDS011;31129;44.810;10.334;2023-02-28T13:50:13;17.88;;;10.70;;
45392;SDS011;31129;44.810;10.334;2023-02-28T13:52:44;17.05;;;11.52;;
45392;SDS011;31129;44.810;10.334;2023-02-28T14:04:06;15.52;;;11.13;;
45392;SDS011;31129;44.810;10.334;2023-02-28T14:06:37;18.50;;;10.77;;
45392;SDS011;31129;44.810;10.334;2023-02-28T14:11:38;20.15;;;11.80;;
45392;SDS011;31129;44.810;10.334;2023-02-28T14:14:06;19.27;;;11.15;;
45392;SDS011;31129;44.810;10.334;2023-02-28T14:16:46;17.55;;;11.30;;
45392;SDS011;31129;44.810;10.334;2023-02-28T14:19:14;17.00;;;12.02;;
45392;SDS011;31129;44.810;10.334;2023-02-28T14:22:33;19.98;;;12.20;;
45392;SDS011;31129;44.810;10.334;2023-02-28T14:37:52;19.27;;;13.15;;
45392;SDS011;31129;44.810;10.334;2023-02-28T14:40:30;20.33;;;12.27;;
45392;SDS011;31129;44.810;10.334;2023-02-28T14:43:02;16.42;;;11.80;;
45392;SDS011;31129;44.810;10.334;2023-02-28T14:45:30;17.25;;;12.30;;
45392;SDS011;31129;44.810;10.334;2023-02-28T14:47:57;15.80;;;10.93;;
45392;SDS011;31129;44.810;10.334;2023-02-28T14:50:29;27.80;;;12.90;;
45392;SDS011;31129;44.810;10.334;2023-02-28T14:52:56;21.42;;;12.50;;
45392;SDS011;31129;44.810;10.334;2023-02-28T14:55:28;19.42;;;12.98;;
45392;SDS011;31129;44.810;10.334;2023-02-28T14:57:56;18.02;;;13.00;;
45392;SDS011;31129;44.810;10.334;2023-02-28T15:02:50;19.83;;;12.23;;
45392;SDS011;31129;44.810;10.334;2023-02-28T15:05:28;17.15;;;12.43;;
45392;SDS011;31129;44.810;10.334;2023-02-28T15:11:24;21.60;;;13.65;;
45392;SDS011;31129;44.810;10.334;2023-02-28T15:16:13;21.00;;;12.65;;
45392;SDS011;31129;44.810;10.334;2023-02-28T15:21:15;21.95;;;12.80;;
45392;SDS011;31129;44.810;10.334;2023-02-28T15:23:57;19.02;;;13.25;;
45392;SDS011;31129;44.810;10.334;2023-02-28T15:26:33;15.90;;;11.90;;
45392;SDS011;31129;44.810;10.334;2023-02-28T15:29:04;20.33;;;13.38;;
45392;SDS011;31129;44.810;10.334;2023-02-28T15:31:33;19.40;;;13.27;;
45392;SDS011;31129;44.810;10.334;2023-02-28T15:34:13;19.00;;;13.20;;
45392;SDS011;31129;44.810;10.334;2023-02-28T15:36:45;26.33;;;14.83;;
45392;SDS011;31129;44.810;10.334;2023-02-28T15:39:44;23.23;;;13.02;;
45392;SDS011;31129;44.810;10.334;2023-02-28T15:42:11;20.20;;;14.63;;
45392;SDS011;31129;44.810;10.334;2023-02-28T15:44:38;20.70;;;14.65;;
45392;SDS011;31129;44.810;10.334;2023-02-28T15:47:04;20.38;;;13.35;;
45392;SDS011;31129;44.810;10.334;2023-02-28T15:49:39;20.80;;;13.73;;
45392;SDS011;31129;44.810;10.334;2023-02-28T15:52:12;20.63;;;14.20;;
45392;SDS011;31129;44.810;10.334;2023-02-28T15:54:41;21.10;;;14.43;;
45392;SDS011;31129;44.810;10.334;2023-02-28T15:57:10;23.60;;;14.18;;
45392;SDS011;31129;44.810;10.334;2023-02-28T15:59:42;21.88;;;13.88;;
45392;SDS011;31129;44.810;10.334;2023-02-28T16:02:17;20.40;;;13.98;;
45392;SDS011;31129;44.810;10.334;2023-02-28T16:07:31;26.50;;;13.73;;
45392;SDS011;31129;44.810;10.334;2023-02-28T16:09:57;19.65;;;13.40;;
45392;SDS011;31129;44.810;10.334;2023-02-28T16:12:28;21.80;;;14.77;;
45392;SDS011;31129;44.810;10.334;2023-02-28T16:14:56;22.25;;;13.60;;
45392;SDS011;31129;44.810;10.334;2023-02-28T16:17:24;24.55;;;14.02;;
45392;SDS011;31129;44.810;10.334;2023-02-28T16:19:52;19.58;;;13.60;;
45392;SDS011;31129;44.810;10.334;2023-02-28T16:22:21;25.55;;;15.00;;
45392;SDS011;31129;44.810;10.334;2023-02-28T16:24:47;21.33;;;13.65;;
45392;SDS011;31129;44.810;10.334;2023-02-28T16:27:17;21.38;;;14.02;;
45392;SDS011;31129;44.810;10.334;2023-02-28T16:29:45;22.05;;;13.80;;
45392;SDS011;31129;44.810;10.334;2023-02-28T16:32:12;20.92;;;13.90;;
45392;SDS011;31129;44.810;10.334;2023-02-28T16:34:39;19.73;;;14.02;;
45392;SDS011;31129;44.810;10.334;2023-02-28T16:37:09;21.85;;;14.30;;
45392;SDS011;31129;44.810;10.334;2023-02-28T16:39:37;23.10;;;14.60;;
45392;SDS011;31129;44.810;10.334;2023-02-28T16:42:02;24.60;;;14.50;;
45392;SDS011;31129;44.810;10.334;2023-02-28T16:46:56;20.07;;;14.10;;
45392;SDS011;31129;44.810;10.334;2023-02-28T16:49:22;23.23;;;14.23;;
45392;SDS011;31129;44.810;10.334;2023-02-28T16:51:47;20.27;;;14.77;;
45392;SDS011;31129;44.810;10.334;2023-02-28T16:54:13;21.85;;;15.07;;
45392;SDS011;31129;44.810;10.334;2023-02-28T16:56:39;24.45;;;14.40;;
45392;SDS011;31129;44.810;10.334;2023-02-28T16:59:08;24.33;;;15.35;;
45392;SDS011;31129;44.810;10.334;2023-02-28T17:01:35;21.95;;;15.85;;
45392;SDS011;31129;44.810;10.334;2023-02-28T17:04:01;24.75;;;15.02;;
45392;SDS011;31129;44.810;10.334;2023-02-28T17:06:27;23.85;;;15.75;;
45392;SDS011;31129;44.810;10.334;2023-02-28T17:08:54;18.60;;;11.27;;
45392;SDS011;31129;44.810;10.334;2023-02-28T17:11:20;23.63;;;14.65;;
45392;SDS011;31129;44.810;10.334;2023-02-28T17:13:46;23.77;;;15.15;;
45392;SDS011;31129;44.810;10.334;2023-02-28T17:16:15;24.20;;;15.60;;
45392;SDS011;31129;44.810;10.334;2023-02-28T17:18:44;23.00;;;15.20;;
45392;SDS011;31129;44.810;10.334;2023-02-28T17:21:13;21.73;;;14.93;;